sensor_id;sensor_type;location;lat;lon;timestamp;P1;durP1;ratioP1;P2;durP2;ratioP2
13263;SDS011;6700;51.988;7.646;2023-10-31T00:01:46;16.17;;;12.30;;
13263;SDS011;6700;51.988;7.646;2023-10-31T00:04:15;13.93;;;12.33;;
13263;SDS011;6700;51.988;7.646;2023-10-31T00:06:42;17.67;;;13.10;;
13263;SDS011;6700;51.988;7.646;2023-10-31T00:09:09;16.40;;;13.20;;
13263;SDS011;6700;51.988;7.646;2023-10-31T00:11:37;15.73;;;12.43;;
13263;SDS011;6700;51.988;7.646;2023-10-31T00:14:04;15.63;;;13.10;;
13263;SDS011;6700;51.988;7.646;2023-10-31T00:16:51;16.70;;;12.67;;
13263;SDS011;6700;51.988;7.646;2023-10-31T00:19:18;14.07;;;11.83;;
13263;SDS011;6700;51.988;7.646;2023-10-31T00:21:45;13.70;;;12.23;;
13263;SDS011;6700;51.988;7.646;2023-10-31T00:24:12;16.53;;;11.97;;
13263;SDS011;6700;51.988;7.646;2023-10-31T00:26:40;14.97;;;11.97;;
13263;SDS011;6700;51.988;7.646;2023-10-31T00:29:07;16.00;;;11.87;;
13263;SDS011;6700;51.988;7.646;2023-10-31T00:31:34;12.97;;;9.57;;
13263;SDS011;6700;51.988;7.646;2023-10-31T00:34:01;12.20;;;9.37;;
13263;SDS011;6700;51.988;7.646;2023-10-31T00:36:29;13.50;;;9.23;;
13263;SDS011;6700;51.988;7.646;2023-10-31T00:38:56;10.93;;;8.43;;
13263;SDS011;6700;51.988;7.646;2023-10-31T00:41:23;8.90;;;8.00;;
13263;SDS011;6700;51.988;7.646;2023-10-31T00:43:50;8.80;;;7.73;;
13263;SDS011;6700;51.988;7.646;2023-10-31T00:46:17;9.30;;;8.00;;
13263;SDS011;6700;51.988;7.646;2023-10-31T00:48:44;8.50;;;7.70;;
13263;SDS011;6700;51.988;7.646;2023-10-31T00:51:11;8.60;;;7.70;;
13263;SDS011;6700;51.988;7.646;2023-10-31T00:53:38;9.77;;;7.50;;
13263;SDS011;6700;51.988;7.646;2023-10-31T00:56:06;9.83;;;7.97;;
13263;SDS011;6700;51.988;7.646;2023-10-31T00:58:34;8.23;;;6.67;;
13263;SDS011;6700;51.988;7.646;2023-10-31T01:01:01;9.30;;;8.30;;
13263;SDS011;6700;51.988;7.646;2023-10-31T01:03:28;8.23;;;7.43;;
13263;SDS011;6700;51.988;7.646;2023-10-31T01:05:56;8.27;;;7.33;;
13263;SDS011;6700;51.988;7.646;2023-10-31T01:08:23;7.43;;;6.63;;
13263;SDS011;6700;51.988;7.646;2023-10-31T01:10:51;7.50;;;6.70;;
13263;SDS011;6700;51.988;7.646;2023-10-31T01:13:18;10.07;;;7.20;;
13263;SDS011;6700;51.988;7.646;2023-10-31T01:15:45;7.73;;;6.47;;
13263;SDS011;6700;51.988;7.646;2023-10-31T01:18:12;6.63;;;6.03;;
13263;SDS011;6700;51.988;7.646;2023-10-31T01:20:40;7.40;;;6.70;;
13263;SDS011;6700;51.988;7.646;2023-10-31T01:23:07;8.47;;;7.60;;
13263;SDS011;6700;51.988;7.646;2023-10-31T01:25:34;8.30;;;7.50;;
13263;SDS011;6700;51.988;7.646;2023-10-31T01:28:01;8.93;;;8.03;;
13263;SDS011;6700;51.988;7.646;2023-10-31T01:30:28;9.03;;;8.23;;
13263;SDS011;6700;51.988;7.646;2023-10-31T01:32:55;9.00;;;8.17;;
13263;SDS011;6700;51.988;7.646;2023-10-31T01:35:22;8.97;;;8.07;;
13263;SDS011;6700;51.988;7.646;2023-10-31T01:37:50;9.63;;;8.33;;
13263;SDS011;6700;51.988;7.646;2023-10-31T01:40:17;8.67;;;7.87;;
13263;SDS011;6700;51.988;7.646;2023-10-31T01:42:44;7.97;;;6.77;;
13263;SDS011;6700;51.988;7.646;2023-10-31T01:45:11;6.17;;;5.63;;
13263;SDS011;6700;51.988;7.646;2023-10-31T01:47:38;6.93;;;5.80;;
13263;SDS011;6700;51.988;7.646;2023-10-31T01:50:06;6.67;;;5.83;;
13263;SDS011;6700;51.988;7.646;2023-10-31T01:52:34;6.00;;;4.90;;
13263;SDS011;6700;51.988;7.646;2023-10-31T01:55:02;5.23;;;4.60;;
13263;SDS011;6700;51.988;7.646;2023-10-31T01:57:29;3.70;;;3.40;;
13263;SDS011;6700;51.988;7.646;2023-10-31T01:59:56;3.90;;;3.60;;
13263;SDS011;6700;51.988;7.646;2023-10-31T02:02:23;3.13;;;2.83;;
13263;SDS011;6700;51.988;7.646;2023-10-31T02:04:52;3.43;;;2.77;;
13263;SDS011;6700;51.988;7.646;2023-10-31T02:07:19;3.77;;;2.90;;
13263;SDS011;6700;51.988;7.646;2023-10-31T02:09:46;2.33;;;2.13;;
13263;SDS011;6700;51.988;7.646;2023-10-31T02:12:32;2.30;;;2.10;;
13263;SDS011;6700;51.988;7.646;2023-10-31T02:14:59;2.20;;;2.00;;
13263;SDS011;6700;51.988;7.646;2023-10-31T02:17:27;2.10;;;2.00;;
13263;SDS011;6700;51.988;7.646;2023-10-31T02:19:54;1.60;;;1.50;;
13263;SDS011;6700;51.988;7.646;2023-10-31T02:22:22;1.93;;;1.70;;
13263;SDS011;6700;51.988;7.646;2023-10-31T02:24:49;1.80;;;1.70;;
13263;SDS011;6700;51.988;7.646;2023-10-31T02:27:16;1.90;;;1.47;;
13263;SDS011;6700;51.988;7.646;2023-10-31T02:29:43;0.87;;;0.87;;
13263;SDS011;6700;51.988;7.646;2023-10-31T02:32:10;1.03;;;1.00;;
13263;SDS011;6700;51.988;7.646;2023-10-31T02:34:38;0.90;;;0.90;;
13263;SDS011;6700;51.988;7.646;2023-10-31T02:37:05;0.67;;;0.67;;
13263;SDS011;6700;51.988;7.646;2023-10-31T02:39:32;0.47;;;0.47;;
13263;SDS011;6700;51.988;7.646;2023-10-31T02:41:59;1.43;;;0.97;;
13263;SDS011;6700;51.988;7.646;2023-10-31T02:44:27;0.43;;;0.43;;
13263;SDS011;6700;51.988;7.646;2023-10-31T02:46:54;1.90;;;0.50;;
13263;SDS011;6700;51.988;7.646;2023-10-31T02:49:21;2.03;;;0.60;;
13263;SDS011;6700;51.988;7.646;2023-10-31T02:51:48;1.07;;;1.07;;
13263;SDS011;6700;51.988;7.646;2023-10-31T02:54:16;0.90;;;0.70;;
13263;SDS011;6700;51.988;7.646;2023-10-31T02:56:43;0.80;;;0.80;;
13263;SDS011;6700;51.988;7.646;2023-10-31T02:59:10;1.47;;;1.20;;
13263;SDS011;6700;51.988;7.646;2023-10-31T03:01:37;2.40;;;1.37;;
13263;SDS011;6700;51.988;7.646;2023-10-31T03:04:05;1.20;;;1.17;;
13263;SDS011;6700;51.988;7.646;2023-10-31T03:06:32;3.17;;;1.27;;
13263;SDS011;6700;51.988;7.646;2023-10-31T03:08:59;1.23;;;0.63;;
13263;SDS011;6700;51.988;7.646;2023-10-31T03:11:27;1.00;;;0.90;;
13263;SDS011;6700;51.988;7.646;2023-10-31T03:13:54;3.57;;;1.30;;
13263;SDS011;6700;51.988;7.646;2023-10-31T03:16:22;1.73;;;1.60;;
13263;SDS011;6700;51.988;7.646;2023-10-31T03:18:50;3.83;;;1.93;;
13263;SDS011;6700;51.988;7.646;2023-10-31T03:21:17;1.60;;;1.50;;
13263;SDS011;6700;51.988;7.646;2023-10-31T03:23:48;4.90;;;1.83;;
13263;SDS011;6700;51.988;7.646;2023-10-31T03:26:16;2.00;;;1.80;;
13263;SDS011;6700;51.988;7.646;2023-10-31T03:28:44;2.57;;;2.07;;
13263;SDS011;6700;51.988;7.646;2023-10-31T03:31:12;2.93;;;2.27;;
13263;SDS011;6700;51.988;7.646;2023-10-31T03:33:39;3.03;;;2.10;;
13263;SDS011;6700;51.988;7.646;2023-10-31T03:36:08;4.90;;;2.20;;
13263;SDS011;6700;51.988;7.646;2023-10-31T03:38:35;2.20;;;2.00;;
13263;SDS011;6700;51.988;7.646;2023-10-31T03:41:03;5.40;;;2.80;;
13263;SDS011;6700;51.988;7.646;2023-10-31T03:43:30;4.17;;;3.10;;
13263;SDS011;6700;51.988;7.646;2023-10-31T03:45:58;4.33;;;3.40;;
13263;SDS011;6700;51.988;7.646;2023-10-31T03:48:25;4.63;;;3.30;;
13263;SDS011;6700;51.988;7.646;2023-10-31T03:50:52;4.83;;;3.93;;
13263;SDS011;6700;51.988;7.646;2023-10-31T03:53:19;4.87;;;3.80;;
13263;SDS011;6700;51.988;7.646;2023-10-31T03:55:46;5.53;;;4.17;;
13263;SDS011;6700;51.988;7.646;2023-10-31T03:58:13;4.77;;;3.63;;
13263;SDS011;6700;51.988;7.646;2023-10-31T04:00:41;4.50;;;3.73;;
13263;SDS011;6700;51.988;7.646;2023-10-31T04:03:08;4.57;;;4.17;;
13263;SDS011;6700;51.988;7.646;2023-10-31T04:05:35;6.03;;;4.87;;
13263;SDS011;6700;51.988;7.646;2023-10-31T04:08:03;7.00;;;4.70;;
13263;SDS011;6700;51.988;7.646;2023-10-31T04:10:30;4.77;;;4.27;;
13263;SDS011;6700;51.988;7.646;2023-10-31T04:12:58;5.40;;;4.90;;
13263;SDS011;6700;51.988;7.646;2023-10-31T04:15:25;7.23;;;5.20;;
13263;SDS011;6700;51.988;7.646;2023-10-31T04:17:52;6.17;;;5.57;;
13263;SDS011;6700;51.988;7.646;2023-10-31T04:20:19;7.63;;;6.50;;
13263;SDS011;6700;51.988;7.646;2023-10-31T04:22:46;10.63;;;6.70;;
13263;SDS011;6700;51.988;7.646;2023-10-31T04:25:14;8.20;;;7.40;;
13263;SDS011;6700;51.988;7.646;2023-10-31T04:27:41;7.70;;;6.93;;
13263;SDS011;6700;51.988;7.646;2023-10-31T04:30:08;8.93;;;7.07;;
13263;SDS011;6700;51.988;7.646;2023-10-31T04:32:40;11.87;;;8.33;;
13263;SDS011;6700;51.988;7.646;2023-10-31T04:35:07;9.03;;;8.03;;
13263;SDS011;6700;51.988;7.646;2023-10-31T04:37:34;12.23;;;8.83;;
13263;SDS011;6700;51.988;7.646;2023-10-31T04:40:01;11.17;;;8.40;;
13263;SDS011;6700;51.988;7.646;2023-10-31T04:42:29;9.03;;;8.13;;
13263;SDS011;6700;51.988;7.646;2023-10-31T04:44:56;10.20;;;7.20;;
13263;SDS011;6700;51.988;7.646;2023-10-31T04:47:23;10.47;;;8.33;;
13263;SDS011;6700;51.988;7.646;2023-10-31T04:49:51;8.27;;;7.43;;
13263;SDS011;6700;51.988;7.646;2023-10-31T04:52:18;9.73;;;8.07;;
13263;SDS011;6700;51.988;7.646;2023-10-31T04:54:46;11.40;;;8.90;;
13263;SDS011;6700;51.988;7.646;2023-10-31T04:57:13;10.67;;;8.00;;
13263;SDS011;6700;51.988;7.646;2023-10-31T04:59:40;11.10;;;9.27;;
13263;SDS011;6700;51.988;7.646;2023-10-31T05:02:07;11.30;;;8.20;;
13263;SDS011;6700;51.988;7.646;2023-10-31T05:04:38;10.60;;;8.80;;
13263;SDS011;6700;51.988;7.646;2023-10-31T05:07:06;9.23;;;7.90;;
13263;SDS011;6700;51.988;7.646;2023-10-31T05:09:34;12.47;;;8.70;;
13263;SDS011;6700;51.988;7.646;2023-10-31T05:12:01;11.70;;;8.87;;
13263;SDS011;6700;51.988;7.646;2023-10-31T05:14:29;9.00;;;8.10;;
13263;SDS011;6700;51.988;7.646;2023-10-31T05:16:56;10.33;;;8.57;;
13263;SDS011;6700;51.988;7.646;2023-10-31T05:19:23;12.60;;;9.80;;
13263;SDS011;6700;51.988;7.646;2023-10-31T05:21:50;13.77;;;9.40;;
13263;SDS011;6700;51.988;7.646;2023-10-31T05:24:17;13.53;;;10.20;;
13263;SDS011;6700;51.988;7.646;2023-10-31T05:26:44;13.03;;;10.13;;
13263;SDS011;6700;51.988;7.646;2023-10-31T05:29:11;13.07;;;9.87;;
13263;SDS011;6700;51.988;7.646;2023-10-31T05:31:39;11.90;;;9.87;;
13263;SDS011;6700;51.988;7.646;2023-10-31T05:34:08;14.87;;;11.53;;
13263;SDS011;6700;51.988;7.646;2023-10-31T05:36:36;12.43;;;10.67;;
13263;SDS011;6700;51.988;7.646;2023-10-31T05:39:03;12.37;;;10.97;;
13263;SDS011;6700;51.988;7.646;2023-10-31T05:41:33;15.27;;;10.50;;
13263;SDS011;6700;51.988;7.646;2023-10-31T05:44:00;13.60;;;11.20;;
13263;SDS011;6700;51.988;7.646;2023-10-31T05:46:27;14.93;;;12.93;;
13263;SDS011;6700;51.988;7.646;2023-10-31T05:48:55;15.43;;;12.10;;
13263;SDS011;6700;51.988;7.646;2023-10-31T05:51:22;14.30;;;11.20;;
13263;SDS011;6700;51.988;7.646;2023-10-31T05:53:51;12.97;;;10.60;;
13263;SDS011;6700;51.988;7.646;2023-10-31T05:56:18;16.17;;;11.80;;
13263;SDS011;6700;51.988;7.646;2023-10-31T05:58:46;13.73;;;10.63;;
13263;SDS011;6700;51.988;7.646;2023-10-31T06:01:13;13.93;;;11.37;;
13263;SDS011;6700;51.988;7.646;2023-10-31T06:03:41;12.77;;;9.90;;
13263;SDS011;6700;51.988;7.646;2023-10-31T06:06:10;16.30;;;9.47;;
13263;SDS011;6700;51.988;7.646;2023-10-31T06:08:38;12.20;;;9.23;;
13263;SDS011;6700;51.988;7.646;2023-10-31T06:11:06;14.47;;;8.47;;
13263;SDS011;6700;51.988;7.646;2023-10-31T06:13:33;15.17;;;9.30;;
13263;SDS011;6700;51.988;7.646;2023-10-31T06:16:00;10.33;;;8.80;;
13263;SDS011;6700;51.988;7.646;2023-10-31T06:18:28;11.50;;;8.50;;
13263;SDS011;6700;51.988;7.646;2023-10-31T06:20:55;11.87;;;7.50;;
13263;SDS011;6700;51.988;7.646;2023-10-31T06:23:23;9.90;;;7.80;;
13263;SDS011;6700;51.988;7.646;2023-10-31T06:25:50;8.70;;;7.43;;
13263;SDS011;6700;51.988;7.646;2023-10-31T06:28:17;7.03;;;5.73;;
13263;SDS011;6700;51.988;7.646;2023-10-31T06:30:45;9.23;;;6.53;;
13263;SDS011;6700;51.988;7.646;2023-10-31T06:33:12;8.20;;;6.07;;
13263;SDS011;6700;51.988;7.646;2023-10-31T06:35:39;7.80;;;5.97;;
13263;SDS011;6700;51.988;7.646;2023-10-31T06:38:07;5.77;;;4.53;;
13263;SDS011;6700;51.988;7.646;2023-10-31T06:40:34;4.97;;;4.43;;
13263;SDS011;6700;51.988;7.646;2023-10-31T06:43:01;5.40;;;4.47;;
13263;SDS011;6700;51.988;7.646;2023-10-31T06:45:29;5.47;;;3.80;;
13263;SDS011;6700;51.988;7.646;2023-10-31T06:47:56;5.27;;;4.57;;
13263;SDS011;6700;51.988;7.646;2023-10-31T06:50:24;5.20;;;4.57;;
13263;SDS011;6700;51.988;7.646;2023-10-31T06:52:51;5.90;;;4.17;;
13263;SDS011;6700;51.988;7.646;2023-10-31T06:55:18;5.13;;;4.60;;
13263;SDS011;6700;51.988;7.646;2023-10-31T06:57:45;4.37;;;3.93;;
13263;SDS011;6700;51.988;7.646;2023-10-31T07:00:12;5.07;;;4.57;;
13263;SDS011;6700;51.988;7.646;2023-10-31T07:02:40;5.03;;;4.63;;
13263;SDS011;6700;51.988;7.646;2023-10-31T07:05:07;4.77;;;4.17;;
13263;SDS011;6700;51.988;7.646;2023-10-31T07:07:35;5.87;;;4.10;;
13263;SDS011;6700;51.988;7.646;2023-10-31T07:10:03;4.77;;;4.37;;
13263;SDS011;6700;51.988;7.646;2023-10-31T07:12:30;5.10;;;4.53;;
13263;SDS011;6700;51.988;7.646;2023-10-31T07:14:57;7.97;;;4.33;;
13263;SDS011;6700;51.988;7.646;2023-10-31T07:17:25;4.50;;;4.10;;
13263;SDS011;6700;51.988;7.646;2023-10-31T07:19:53;6.90;;;4.00;;
13263;SDS011;6700;51.988;7.646;2023-10-31T07:22:20;4.60;;;4.20;;
13263;SDS011;6700;51.988;7.646;2023-10-31T07:24:49;4.27;;;3.83;;
13263;SDS011;6700;51.988;7.646;2023-10-31T07:27:16;4.40;;;3.97;;
13263;SDS011;6700;51.988;7.646;2023-10-31T07:29:43;5.00;;;4.30;;
13263;SDS011;6700;51.988;7.646;2023-10-31T07:32:12;4.40;;;4.00;;
13263;SDS011;6700;51.988;7.646;2023-10-31T07:34:42;5.37;;;3.17;;
13263;SDS011;6700;51.988;7.646;2023-10-31T07:37:10;4.57;;;3.50;;
13263;SDS011;6700;51.988;7.646;2023-10-31T07:39:37;5.30;;;3.77;;
13263;SDS011;6700;51.988;7.646;2023-10-31T07:42:04;4.37;;;3.80;;
13263;SDS011;6700;51.988;7.646;2023-10-31T07:44:31;6.90;;;3.13;;
13263;SDS011;6700;51.988;7.646;2023-10-31T07:46:59;5.17;;;3.30;;
13263;SDS011;6700;51.988;7.646;2023-10-31T07:49:26;4.17;;;3.33;;
13263;SDS011;6700;51.988;7.646;2023-10-31T07:51:53;6.30;;;3.80;;
13263;SDS011;6700;51.988;7.646;2023-10-31T07:54:20;3.77;;;3.17;;
13263;SDS011;6700;51.988;7.646;2023-10-31T07:56:48;4.07;;;3.23;;
13263;SDS011;6700;51.988;7.646;2023-10-31T07:59:15;3.80;;;3.40;;
13263;SDS011;6700;51.988;7.646;2023-10-31T08:01:42;4.30;;;3.83;;
13263;SDS011;6700;51.988;7.646;2023-10-31T08:04:09;3.30;;;3.00;;
13263;SDS011;6700;51.988;7.646;2023-10-31T08:06:36;4.27;;;3.40;;
13263;SDS011;6700;51.988;7.646;2023-10-31T08:09:03;4.30;;;3.90;;
13263;SDS011;6700;51.988;7.646;2023-10-31T08:11:34;4.57;;;3.70;;
13263;SDS011;6700;51.988;7.646;2023-10-31T08:14:01;4.57;;;3.80;;
13263;SDS011;6700;51.988;7.646;2023-10-31T08:16:29;4.43;;;3.93;;
13263;SDS011;6700;51.988;7.646;2023-10-31T08:18:56;4.03;;;3.63;;
13263;SDS011;6700;51.988;7.646;2023-10-31T08:21:23;5.80;;;4.70;;
13263;SDS011;6700;51.988;7.646;2023-10-31T08:23:51;7.30;;;4.40;;
13263;SDS011;6700;51.988;7.646;2023-10-31T08:26:18;5.53;;;4.63;;
13263;SDS011;6700;51.988;7.646;2023-10-31T08:28:45;6.83;;;4.90;;
13263;SDS011;6700;51.988;7.646;2023-10-31T08:31:12;4.97;;;4.13;;
13263;SDS011;6700;51.988;7.646;2023-10-31T08:33:39;6.37;;;5.77;;
13263;SDS011;6700;51.988;7.646;2023-10-31T08:36:06;7.67;;;5.47;;
13263;SDS011;6700;51.988;7.646;2023-10-31T08:38:34;5.67;;;5.07;;
13263;SDS011;6700;51.988;7.646;2023-10-31T08:41:01;6.30;;;5.23;;
13263;SDS011;6700;51.988;7.646;2023-10-31T08:43:28;6.07;;;5.30;;
13263;SDS011;6700;51.988;7.646;2023-10-31T08:45:55;8.60;;;6.23;;
13263;SDS011;6700;51.988;7.646;2023-10-31T08:48:23;8.50;;;5.87;;
13263;SDS011;6700;51.988;7.646;2023-10-31T08:50:51;9.13;;;6.40;;
13263;SDS011;6700;51.988;7.646;2023-10-31T08:53:18;9.63;;;7.10;;
13263;SDS011;6700;51.988;7.646;2023-10-31T08:55:45;8.53;;;7.37;;
13263;SDS011;6700;51.988;7.646;2023-10-31T08:58:13;10.50;;;7.17;;
13263;SDS011;6700;51.988;7.646;2023-10-31T09:00:40;8.37;;;7.00;;
13263;SDS011;6700;51.988;7.646;2023-10-31T09:03:08;8.07;;;7.27;;
13263;SDS011;6700;51.988;7.646;2023-10-31T09:05:35;9.77;;;7.07;;
13263;SDS011;6700;51.988;7.646;2023-10-31T09:08:03;10.03;;;6.83;;
13263;SDS011;6700;51.988;7.646;2023-10-31T09:10:32;9.00;;;7.07;;
13263;SDS011;6700;51.988;7.646;2023-10-31T09:12:59;8.37;;;6.60;;
13263;SDS011;6700;51.988;7.646;2023-10-31T09:15:26;7.43;;;6.27;;
13263;SDS011;6700;51.988;7.646;2023-10-31T09:17:53;6.27;;;4.83;;
13263;SDS011;6700;51.988;7.646;2023-10-31T09:20:20;6.97;;;5.70;;
13263;SDS011;6700;51.988;7.646;2023-10-31T09:22:47;6.97;;;5.77;;
13263;SDS011;6700;51.988;7.646;2023-10-31T09:25:15;7.73;;;6.17;;
13263;SDS011;6700;51.988;7.646;2023-10-31T09:27:42;10.17;;;6.00;;
13263;SDS011;6700;51.988;7.646;2023-10-31T09:30:09;7.63;;;6.17;;
13263;SDS011;6700;51.988;7.646;2023-10-31T09:32:36;7.73;;;6.60;;
13263;SDS011;6700;51.988;7.646;2023-10-31T09:35:04;8.77;;;7.30;;
13263;SDS011;6700;51.988;7.646;2023-10-31T09:37:34;10.77;;;7.17;;
13263;SDS011;6700;51.988;7.646;2023-10-31T09:40:01;11.10;;;8.87;;
13263;SDS011;6700;51.988;7.646;2023-10-31T09:42:28;11.07;;;9.13;;
13263;SDS011;6700;51.988;7.646;2023-10-31T09:44:55;10.70;;;8.73;;
13263;SDS011;6700;51.988;7.646;2023-10-31T09:47:23;11.13;;;9.10;;
13263;SDS011;6700;51.988;7.646;2023-10-31T09:49:51;20.43;;;15.67;;
13263;SDS011;6700;51.988;7.646;2023-10-31T09:52:18;13.37;;;10.33;;
13263;SDS011;6700;51.988;7.646;2023-10-31T09:54:47;11.60;;;9.47;;
13263;SDS011;6700;51.988;7.646;2023-10-31T09:57:16;11.00;;;8.87;;
13263;SDS011;6700;51.988;7.646;2023-10-31T09:59:46;14.73;;;13.13;;
13263;SDS011;6700;51.988;7.646;2023-10-31T10:02:13;15.97;;;13.20;;
13263;SDS011;6700;51.988;7.646;2023-10-31T10:04:40;12.43;;;10.00;;
13263;SDS011;6700;51.988;7.646;2023-10-31T10:07:08;10.23;;;9.07;;
13263;SDS011;6700;51.988;7.646;2023-10-31T10:09:35;13.47;;;10.93;;
13263;SDS011;6700;51.988;7.646;2023-10-31T10:12:03;9.43;;;8.43;;
13263;SDS011;6700;51.988;7.646;2023-10-31T10:14:31;10.00;;;9.00;;
13263;SDS011;6700;51.988;7.646;2023-10-31T10:16:59;12.40;;;10.40;;
13263;SDS011;6700;51.988;7.646;2023-10-31T10:19:26;9.87;;;8.47;;
13263;SDS011;6700;51.988;7.646;2023-10-31T10:21:56;10.43;;;8.80;;
13263;SDS011;6700;51.988;7.646;2023-10-31T10:24:23;10.60;;;9.13;;
13263;SDS011;6700;51.988;7.646;2023-10-31T10:26:51;10.00;;;8.93;;
13263;SDS011;6700;51.988;7.646;2023-10-31T10:29:18;10.17;;;9.07;;
13263;SDS011;6700;51.988;7.646;2023-10-31T10:31:46;9.90;;;8.87;;
13263;SDS011;6700;51.988;7.646;2023-10-31T10:34:14;10.77;;;7.73;;
13263;SDS011;6700;51.988;7.646;2023-10-31T10:36:44;10.30;;;8.53;;
13263;SDS011;6700;51.988;7.646;2023-10-31T10:39:13;9.80;;;8.77;;
13263;SDS011;6700;51.988;7.646;2023-10-31T10:41:42;8.50;;;7.60;;
13263;SDS011;6700;51.988;7.646;2023-10-31T10:44:10;10.83;;;8.33;;
13263;SDS011;6700;51.988;7.646;2023-10-31T10:46:40;9.63;;;7.47;;
13263;SDS011;6700;51.988;7.646;2023-10-31T10:49:07;8.87;;;7.97;;
13263;SDS011;6700;51.988;7.646;2023-10-31T10:51:43;8.87;;;7.70;;
13263;SDS011;6700;51.988;7.646;2023-10-31T10:54:14;8.67;;;7.73;;
13263;SDS011;6700;51.988;7.646;2023-10-31T10:56:44;9.93;;;7.80;;
13263;SDS011;6700;51.988;7.646;2023-10-31T10:59:19;7.80;;;7.00;;
13263;SDS011;6700;51.988;7.646;2023-10-31T11:01:48;13.47;;;9.10;;
13263;SDS011;6700;51.988;7.646;2023-10-31T11:04:16;11.17;;;8.43;;
13263;SDS011;6700;51.988;7.646;2023-10-31T11:06:44;21.97;;;16.83;;
13263;SDS011;6700;51.988;7.646;2023-10-31T11:09:11;12.07;;;9.90;;
13263;SDS011;6700;51.988;7.646;2023-10-31T11:11:39;15.40;;;8.73;;
13263;SDS011;6700;51.988;7.646;2023-10-31T11:14:07;8.43;;;7.60;;
13263;SDS011;6700;51.988;7.646;2023-10-31T11:19:03;10.57;;;9.20;;
13263;SDS011;6700;51.988;7.646;2023-10-31T11:21:31;8.90;;;8.00;;
13263;SDS011;6700;51.988;7.646;2023-10-31T11:23:58;7.70;;;6.93;;
13263;SDS011;6700;51.988;7.646;2023-10-31T11:26:26;12.17;;;9.40;;
13263;SDS011;6700;51.988;7.646;2023-10-31T11:29:03;11.23;;;8.07;;
13263;SDS011;6700;51.988;7.646;2023-10-31T11:31:31;9.70;;;6.97;;
13263;SDS011;6700;51.988;7.646;2023-10-31T11:34:01;9.70;;;7.87;;
13263;SDS011;6700;51.988;7.646;2023-10-31T11:36:31;8.27;;;6.93;;
13263;SDS011;6700;51.988;7.646;2023-10-31T11:39:12;10.90;;;7.10;;
13263;SDS011;6700;51.988;7.646;2023-10-31T11:41:39;8.67;;;6.40;;
13263;SDS011;6700;51.988;7.646;2023-10-31T11:44:07;7.43;;;6.63;;
13263;SDS011;6700;51.988;7.646;2023-10-31T11:46:34;8.53;;;7.13;;
13263;SDS011;6700;51.988;7.646;2023-10-31T11:49:01;13.47;;;9.80;;
13263;SDS011;6700;51.988;7.646;2023-10-31T11:51:31;10.63;;;8.80;;
13263;SDS011;6700;51.988;7.646;2023-10-31T11:53:59;11.73;;;9.37;;
13263;SDS011;6700;51.988;7.646;2023-10-31T11:56:27;10.50;;;8.13;;
13263;SDS011;6700;51.988;7.646;2023-10-31T11:58:54;11.17;;;7.50;;
13263;SDS011;6700;51.988;7.646;2023-10-31T12:01:22;9.63;;;8.37;;
13263;SDS011;6700;51.988;7.646;2023-10-31T12:03:49;11.03;;;9.07;;
13263;SDS011;6700;51.988;7.646;2023-10-31T12:06:18;10.37;;;8.83;;
13263;SDS011;6700;51.988;7.646;2023-10-31T12:08:47;10.70;;;8.47;;
13263;SDS011;6700;51.988;7.646;2023-10-31T12:11:18;9.37;;;7.50;;
13263;SDS011;6700;51.988;7.646;2023-10-31T12:13:56;9.73;;;7.27;;
13263;SDS011;6700;51.988;7.646;2023-10-31T12:16:24;7.70;;;6.90;;
13263;SDS011;6700;51.988;7.646;2023-10-31T12:18:56;8.03;;;6.50;;
13263;SDS011;6700;51.988;7.646;2023-10-31T12:24:10;8.20;;;7.00;;
13263;SDS011;6700;51.988;7.646;2023-10-31T12:26:38;9.23;;;6.80;;
13263;SDS011;6700;51.988;7.646;2023-10-31T12:29:09;9.20;;;7.20;;
13263;SDS011;6700;51.988;7.646;2023-10-31T12:31:44;10.73;;;7.03;;
13263;SDS011;6700;51.988;7.646;2023-10-31T12:34:16;8.37;;;7.00;;
13263;SDS011;6700;51.988;7.646;2023-10-31T12:36:44;9.67;;;7.67;;
13263;SDS011;6700;51.988;7.646;2023-10-31T12:39:13;9.20;;;7.47;;
13263;SDS011;6700;51.988;7.646;2023-10-31T12:41:42;8.63;;;7.30;;
13263;SDS011;6700;51.988;7.646;2023-10-31T12:44:10;10.60;;;8.07;;
13263;SDS011;6700;51.988;7.646;2023-10-31T12:46:40;13.37;;;7.87;;
13263;SDS011;6700;51.988;7.646;2023-10-31T12:49:17;11.93;;;8.27;;
13263;SDS011;6700;51.988;7.646;2023-10-31T12:51:54;10.87;;;8.70;;
13263;SDS011;6700;51.988;7.646;2023-10-31T12:54:32;8.93;;;7.73;;
13263;SDS011;6700;51.988;7.646;2023-10-31T12:57:02;9.30;;;7.53;;
13263;SDS011;6700;51.988;7.646;2023-10-31T12:59:34;12.80;;;9.13;;
13263;SDS011;6700;51.988;7.646;2023-10-31T13:02:02;12.00;;;8.63;;
13263;SDS011;6700;51.988;7.646;2023-10-31T13:04:31;14.03;;;8.67;;
13263;SDS011;6700;51.988;7.646;2023-10-31T13:06:59;11.73;;;8.37;;
13263;SDS011;6700;51.988;7.646;2023-10-31T13:09:28;10.07;;;9.00;;
13263;SDS011;6700;51.988;7.646;2023-10-31T13:12:05;17.77;;;10.60;;
13263;SDS011;6700;51.988;7.646;2023-10-31T13:14:33;12.83;;;9.27;;
13263;SDS011;6700;51.988;7.646;2023-10-31T13:17:01;16.43;;;10.40;;
13263;SDS011;6700;51.988;7.646;2023-10-31T13:19:29;12.57;;;10.20;;
13263;SDS011;6700;51.988;7.646;2023-10-31T13:21:56;14.63;;;11.00;;
13263;SDS011;6700;51.988;7.646;2023-10-31T13:24:23;12.60;;;9.77;;
13263;SDS011;6700;51.988;7.646;2023-10-31T13:26:50;11.67;;;9.37;;
13263;SDS011;6700;51.988;7.646;2023-10-31T13:29:19;10.50;;;9.37;;
13263;SDS011;6700;51.988;7.646;2023-10-31T13:31:48;13.50;;;10.20;;
13263;SDS011;6700;51.988;7.646;2023-10-31T13:34:15;13.60;;;10.47;;
13263;SDS011;6700;51.988;7.646;2023-10-31T13:36:42;15.03;;;9.20;;
13263;SDS011;6700;51.988;7.646;2023-10-31T13:39:11;10.17;;;9.17;;
13263;SDS011;6700;51.988;7.646;2023-10-31T13:41:38;13.20;;;8.97;;
13263;SDS011;6700;51.988;7.646;2023-10-31T13:44:06;12.00;;;8.40;;
13263;SDS011;6700;51.988;7.646;2023-10-31T13:46:33;12.00;;;9.23;;
13263;SDS011;6700;51.988;7.646;2023-10-31T13:49:01;10.47;;;8.60;;
13263;SDS011;6700;51.988;7.646;2023-10-31T13:51:29;12.63;;;8.90;;
13263;SDS011;6700;51.988;7.646;2023-10-31T13:53:56;11.43;;;7.87;;
13263;SDS011;6700;51.988;7.646;2023-10-31T13:56:23;9.53;;;7.37;;
13263;SDS011;6700;51.988;7.646;2023-10-31T13:58:50;9.20;;;8.20;;
13263;SDS011;6700;51.988;7.646;2023-10-31T14:01:18;13.30;;;8.93;;
13263;SDS011;6700;51.988;7.646;2023-10-31T14:03:51;8.80;;;6.63;;
13263;SDS011;6700;51.988;7.646;2023-10-31T14:06:18;9.97;;;6.87;;
13263;SDS011;6700;51.988;7.646;2023-10-31T14:08:46;10.87;;;6.63;;
13263;SDS011;6700;51.988;7.646;2023-10-31T14:11:13;6.83;;;5.63;;
13263;SDS011;6700;51.988;7.646;2023-10-31T14:13:41;6.33;;;5.70;;
13263;SDS011;6700;51.988;7.646;2023-10-31T14:16:10;11.93;;;6.30;;
13263;SDS011;6700;51.988;7.646;2023-10-31T14:18:39;8.10;;;5.40;;
13263;SDS011;6700;51.988;7.646;2023-10-31T14:21:07;8.53;;;6.00;;
13263;SDS011;6700;51.988;7.646;2023-10-31T14:23:34;6.53;;;5.60;;
13263;SDS011;6700;51.988;7.646;2023-10-31T14:26:02;7.53;;;5.80;;
13263;SDS011;6700;51.988;7.646;2023-10-31T14:28:29;8.07;;;5.10;;
13263;SDS011;6700;51.988;7.646;2023-10-31T14:30:56;9.03;;;5.20;;
13263;SDS011;6700;51.988;7.646;2023-10-31T14:33:24;9.07;;;5.10;;
13263;SDS011;6700;51.988;7.646;2023-10-31T14:35:51;11.53;;;6.67;;
13263;SDS011;6700;51.988;7.646;2023-10-31T14:38:19;8.97;;;5.47;;
13263;SDS011;6700;51.988;7.646;2023-10-31T14:40:46;7.63;;;4.73;;
13263;SDS011;6700;51.988;7.646;2023-10-31T14:43:13;7.23;;;5.10;;
13263;SDS011;6700;51.988;7.646;2023-10-31T14:45:44;9.57;;;5.43;;
13263;SDS011;6700;51.988;7.646;2023-10-31T14:48:11;9.77;;;5.67;;
13263;SDS011;6700;51.988;7.646;2023-10-31T14:50:39;9.47;;;6.67;;
13263;SDS011;6700;51.988;7.646;2023-10-31T14:53:07;9.03;;;5.50;;
13263;SDS011;6700;51.988;7.646;2023-10-31T14:55:35;13.03;;;5.93;;
13263;SDS011;6700;51.988;7.646;2023-10-31T14:58:02;9.77;;;6.70;;
13263;SDS011;6700;51.988;7.646;2023-10-31T15:00:30;8.60;;;5.77;;
13263;SDS011;6700;51.988;7.646;2023-10-31T15:02:57;10.40;;;6.40;;
13263;SDS011;6700;51.988;7.646;2023-10-31T15:05:24;7.87;;;5.17;;